createdAt,value
2017-12-08T00:00:19.239Z,55.40
2017-12-08T00:02:46.785Z,56.00
2017-12-08T00:05:14.314Z,55.30
2017-12-08T00:07:42.655Z,55.60
2017-12-08T00:10:10.182Z,55.60
2017-12-08T00:12:37.730Z,55.40
2017-12-08T00:15:05.236Z,55.30
2017-12-08T00:17:33.616Z,54.80
2017-12-08T00:20:01.156Z,54.50
2017-12-08T00:22:28.703Z,53.80
2017-12-08T00:24:56.217Z,54.20
2017-12-08T00:27:23.778Z,55.10
2017-12-08T00:29:52.107Z,57.40
2017-12-08T00:32:19.664Z,57.40
2017-12-08T00:34:47.227Z,58.40
2017-12-08T00:37:15.029Z,58.60
2017-12-08T00:39:42.561Z,59.30
2017-12-08T00:42:10.075Z,60.00
2017-12-08T00:44:37.628Z,60.30
2017-12-08T00:47:05.135Z,60.60
2017-12-08T00:49:32.719Z,60.80
2017-12-08T00:52:00.227Z,61.40
2017-12-08T00:54:27.777Z,61.90
2017-12-08T00:56:55.290Z,62.20
2017-12-08T00:59:23.159Z,62.30
2017-12-08T01:01:50.700Z,62.50
2017-12-08T01:04:18.214Z,62.30
2017-12-08T01:06:45.735Z,62.60
2017-12-08T01:09:13.290Z,62.50
2017-12-08T01:11:40.816Z,62.50
2017-12-08T01:14:08.413Z,62.80
2017-12-08T01:16:35.975Z,62.70
2017-12-08T01:19:03.519Z,63.40
2017-12-08T01:21:31.022Z,63.50
2017-12-08T01:23:58.570Z,64.00
2017-12-08T01:26:26.081Z,64.10
2017-12-08T01:28:53.588Z,64.20
2017-12-08T01:31:21.904Z,64.80
2017-12-08T01:33:49.454Z,64.70
2017-12-08T01:36:16.997Z,64.80
2017-12-08T01:38:44.546Z,64.70
2017-12-08T01:41:12.102Z,64.80
2017-12-08T01:43:40.374Z,65.00
2017-12-08T01:46:07.883Z,65.70
2017-12-08T01:48:35.429Z,64.80
2017-12-08T01:51:02.936Z,64.90
2017-12-08T01:53:30.850Z,64.80
2017-12-08T01:55:58.680Z,64.80
2017-12-08T01:58:26.965Z,65.20
2017-12-08T02:00:54.473Z,64.40
2017-12-08T02:03:22.010Z,64.40
2017-12-08T02:05:49.524Z,64.40
2017-12-08T02:08:17.089Z,64.10
2017-12-08T02:10:44.624Z,64.20
2017-12-08T02:13:12.219Z,64.00
2017-12-08T02:15:39.771Z,63.80
2017-12-08T02:18:07.315Z,63.90
2017-12-08T02:20:34.832Z,63.60
2017-12-08T02:23:02.380Z,63.20
2017-12-08T02:25:29.926Z,63.40
2017-12-08T02:27:57.454Z,63.10
2017-12-08T02:30:24.992Z,63.00
2017-12-08T02:32:52.554Z,62.40
2017-12-08T02:35:20.132Z,62.50
2017-12-08T02:37:47.737Z,62.50
2017-12-08T02:40:15.309Z,62.40
2017-12-08T02:42:42.867Z,62.20
2017-12-08T02:45:10.402Z,62.50
2017-12-08T02:47:38.716Z,62.00
2017-12-08T02:50:06.268Z,62.00
2017-12-08T02:52:33.829Z,62.00
2017-12-08T02:57:54.652Z,61.90
2017-12-08T03:00:22.201Z,62.10
2017-12-08T03:02:49.746Z,62.30
2017-12-08T03:05:17.270Z,62.30
2017-12-08T03:07:44.808Z,62.00
2017-12-08T03:10:12.356Z,62.20
2017-12-08T03:12:39.859Z,62.10
2017-12-08T03:15:07.425Z,62.20
2017-12-08T03:17:35.760Z,62.30
2017-12-08T03:20:03.318Z,62.30
2017-12-08T03:22:30.827Z,62.50
2017-12-08T03:24:59.122Z,62.60
2017-12-08T03:27:26.676Z,62.70
2017-12-08T03:29:54.641Z,62.60
2017-12-08T03:32:22.985Z,63.10
2017-12-08T03:34:50.675Z,63.00
2017-12-08T03:37:18.680Z,63.50
2017-12-08T03:39:46.220Z,63.50
2017-12-08T03:42:13.776Z,63.90
2017-12-08T03:44:41.331Z,64.10
2017-12-08T03:47:08.837Z,64.00
2017-12-08T03:49:36.372Z,63.90
2017-12-08T03:52:03.924Z,64.10
2017-12-08T03:54:31.469Z,64.30
2017-12-08T03:56:59.021Z,64.20
2017-12-08T03:59:26.589Z,64.20
2017-12-08T04:01:54.169Z,64.20
2017-12-08T04:04:21.708Z,64.40
2017-12-08T04:06:49.255Z,64.60
2017-12-08T04:09:17.537Z,64.50
2017-12-08T04:11:45.123Z,64.50
2017-12-08T04:14:12.647Z,64.30
2017-12-08T04:16:40.194Z,64.20
2017-12-08T04:19:07.700Z,64.60
2017-12-08T04:21:35.240Z,64.30
2017-12-08T04:24:02.782Z,64.40
2017-12-08T04:26:30.417Z,64.60
2017-12-08T04:28:57.944Z,65.00
2017-12-08T04:31:25.491Z,64.90
2017-12-08T04:33:53.042Z,65.20
2017-12-08T04:36:20.926Z,65.30
2017-12-08T04:38:48.958Z,65.40
2017-12-08T04:41:17.318Z,65.30
2017-12-08T04:43:44.835Z,65.30
2017-12-08T04:46:12.383Z,65.30
2017-12-08T04:48:39.934Z,65.30
2017-12-08T04:51:07.457Z,65.30
2017-12-08T04:53:35.010Z,65.90
2017-12-08T04:56:02.531Z,65.20
2017-12-08T04:58:30.079Z,65.40
2017-12-08T05:00:57.624Z,65.40
2017-12-08T05:03:26.001Z,66.20
2017-12-08T05:05:54.326Z,66.60
2017-12-08T05:08:21.861Z,66.50
2017-12-08T05:10:49.412Z,66.70
2017-12-08T05:13:16.927Z,67.10
2017-12-08T05:15:44.447Z,67.70
2017-12-08T05:18:12.310Z,67.80
2017-12-08T05:20:40.694Z,68.10
2017-12-08T05:23:08.236Z,68.10
2017-12-08T05:25:35.772Z,66.10
2017-12-08T05:28:03.324Z,67.00
2017-12-08T05:30:30.868Z,65.20
2017-12-08T05:32:58.373Z,65.10
2017-12-08T05:35:25.908Z,64.80
2017-12-08T05:37:53.456Z,64.00
2017-12-08T05:40:20.964Z,64.40
2017-12-08T05:42:48.512Z,64.50
2017-12-08T05:45:16.075Z,63.60
2017-12-08T05:47:43.586Z,64.00
2017-12-08T05:50:11.120Z,64.30
2017-12-08T05:52:39.169Z,64.60
2017-12-08T05:55:06.730Z,64.20
2017-12-08T05:57:34.312Z,64.50
2017-12-08T06:00:01.855Z,63.80
2017-12-08T06:02:29.425Z,63.60
2017-12-08T06:04:56.978Z,64.50
2017-12-08T06:07:24.531Z,64.40
2017-12-08T06:09:52.128Z,63.60
2017-12-08T06:12:19.628Z,63.70
2017-12-08T06:14:47.181Z,63.60
2017-12-08T06:17:15.461Z,63.40
2017-12-08T06:19:43.004Z,63.40
2017-12-08T06:22:11.324Z,63.30
2017-12-08T06:24:38.856Z,63.20
2017-12-08T06:27:07.163Z,63.00
2017-12-08T06:29:34.667Z,62.90
2017-12-08T06:32:02.192Z,62.90
2017-12-08T06:34:30.219Z,63.10
2017-12-08T06:36:58.507Z,63.00
2017-12-08T06:39:26.018Z,63.00
2017-12-08T06:41:53.595Z,63.00
2017-12-08T06:44:21.112Z,63.10
2017-12-08T06:46:48.633Z,63.30
2017-12-08T06:49:16.172Z,63.30
2017-12-08T06:51:44.030Z,63.30
2017-12-08T06:54:11.540Z,63.30
2017-12-08T06:56:39.087Z,63.50
2017-12-08T06:59:06.597Z,63.80
2017-12-08T07:01:34.113Z,63.80
2017-12-08T07:04:01.689Z,64.10
2017-12-08T07:06:29.616Z,63.80
2017-12-08T07:08:58.008Z,63.70
2017-12-08T07:11:27.085Z,63.60
2017-12-08T07:13:54.667Z,63.30
2017-12-08T07:16:22.608Z,63.70
2017-12-08T07:18:50.127Z,63.70
2017-12-08T07:21:17.668Z,63.80
2017-12-08T07:23:45.175Z,63.80
2017-12-08T07:26:12.735Z,64.10
2017-12-08T07:28:40.363Z,64.00
2017-12-08T07:31:08.168Z,63.60
2017-12-08T07:33:36.490Z,63.60
2017-12-08T07:36:04.119Z,63.50
2017-12-08T07:38:32.015Z,63.20
2017-12-08T07:40:59.586Z,63.60
2017-12-08T07:43:27.206Z,62.80
2017-12-08T07:45:54.752Z,62.40
2017-12-08T07:48:22.321Z,62.90
2017-12-08T07:50:49.903Z,61.90
2017-12-08T07:53:17.453Z,62.30
2017-12-08T07:55:45.028Z,62.10
2017-12-08T07:58:12.586Z,63.20
2017-12-08T08:00:40.424Z,62.40
2017-12-08T08:03:07.936Z,62.10
2017-12-08T08:05:35.483Z,62.90
2017-12-08T08:08:03.050Z,62.10
2017-12-08T08:10:30.585Z,62.10
2017-12-08T08:12:58.446Z,62.30
2017-12-08T08:15:25.990Z,62.10
2017-12-08T08:17:53.594Z,62.20
2017-12-08T08:20:21.213Z,62.20
2017-12-08T08:22:48.820Z,62.30
2017-12-08T08:25:16.393Z,62.10
2017-12-08T08:27:43.891Z,62.50
2017-12-08T08:30:11.456Z,63.30
2017-12-08T08:32:39.778Z,63.10
2017-12-08T08:35:07.331Z,63.00
2017-12-08T08:37:34.848Z,63.70
2017-12-08T08:40:02.449Z,62.70
2017-12-08T08:42:30.008Z,62.40
2017-12-08T08:44:57.527Z,62.10
2017-12-08T08:47:25.097Z,61.90
2017-12-08T08:49:52.896Z,61.90
2017-12-08T08:52:20.552Z,61.90
2017-12-08T08:54:48.139Z,62.40
2017-12-08T08:57:15.733Z,62.60
2017-12-08T08:59:43.297Z,62.20
2017-12-08T09:02:10.862Z,62.20
2017-12-08T09:04:39.167Z,61.90
2017-12-08T09:07:06.706Z,61.80
2017-12-08T09:09:34.285Z,62.30
2017-12-08T09:12:01.828Z,61.90
2017-12-08T09:14:29.442Z,61.10
2017-12-08T09:16:56.995Z,61.20
2017-12-08T09:19:24.959Z,61.10
2017-12-08T09:21:52.764Z,61.70
2017-12-08T09:24:20.306Z,61.20
2017-12-08T09:26:47.874Z,58.80
2017-12-08T09:29:15.444Z,56.90
2017-12-08T09:31:43.061Z,55.30
2017-12-08T09:34:10.710Z,55.70
2017-12-08T09:36:38.532Z,55.80
2017-12-08T09:39:06.066Z,55.50
2017-12-08T09:41:33.629Z,56.40
2017-12-08T09:44:01.277Z,56.30
2017-12-08T09:46:28.826Z,56.50
2017-12-08T09:48:56.397Z,56.10
2017-12-08T09:51:23.944Z,56.30
2017-12-08T09:53:51.518Z,56.10
2017-12-08T09:56:19.115Z,56.00
2017-12-08T09:58:46.656Z,56.10
2017-12-08T10:01:14.396Z,56.30
2017-12-08T10:03:41.951Z,55.90
2017-12-08T10:06:09.522Z,55.80
2017-12-08T10:08:37.819Z,55.40
2017-12-08T10:11:05.371Z,55.30
2017-12-08T10:13:32.936Z,54.90
2017-12-08T10:16:00.488Z,54.40
2017-12-08T10:18:28.013Z,54.30
2017-12-08T10:20:55.585Z,54.90
2017-12-08T10:23:23.508Z,55.70
2017-12-08T10:25:51.031Z,54.60
2017-12-08T10:28:18.662Z,54.90
2017-12-08T10:30:46.514Z,54.60
2017-12-08T10:33:14.998Z,53.10
2017-12-08T10:35:42.580Z,52.40
2017-12-08T10:38:10.118Z,51.20
2017-12-08T10:40:37.652Z,52.10
2017-12-08T10:43:05.217Z,52.80
2017-12-08T10:45:33.537Z,51.60
2017-12-08T10:48:01.097Z,51.60
2017-12-08T10:50:28.745Z,51.40
2017-12-08T10:52:56.332Z,51.30
2017-12-08T10:55:23.881Z,52.00
2017-12-08T10:57:51.407Z,51.30
2017-12-08T11:00:19.034Z,51.30
2017-12-08T11:02:46.822Z,51.00
2017-12-08T11:05:14.344Z,51.10
2017-12-08T11:07:41.993Z,51.20
2017-12-08T11:10:09.518Z,51.50
2017-12-08T11:12:37.076Z,51.30
2017-12-08T11:15:04.644Z,50.40
2017-12-08T11:17:32.208Z,50.70
2017-12-08T11:19:59.741Z,51.10
2017-12-08T11:22:27.298Z,51.20
2017-12-08T11:24:55.593Z,50.40
2017-12-08T11:27:23.219Z,50.30
2017-12-08T11:29:50.753Z,50.60
2017-12-08T11:32:18.307Z,50.80
2017-12-08T11:34:45.936Z,51.00
2017-12-08T11:37:13.459Z,49.80
2017-12-08T11:39:41.080Z,49.70
2017-12-08T11:42:08.658Z,49.10
2017-12-08T11:44:36.187Z,49.60
2017-12-08T11:47:03.732Z,50.20
2017-12-08T11:49:31.255Z,49.20
2017-12-08T11:51:58.909Z,49.00
2017-12-08T11:54:26.428Z,48.90
2017-12-08T11:56:53.984Z,48.90
2017-12-08T11:59:21.495Z,49.30
2017-12-08T12:01:49.051Z,48.20
2017-12-08T12:04:16.616Z,47.90
2017-12-08T12:06:44.187Z,48.20
2017-12-08T12:09:12.052Z,47.90
2017-12-08T12:11:39.681Z,48.20
2017-12-08T12:14:07.282Z,48.30
2017-12-08T12:16:35.584Z,48.30
2017-12-08T12:19:04.768Z,48.30
2017-12-08T12:21:32.307Z,47.30
2017-12-08T12:23:59.930Z,47.30
2017-12-08T12:26:27.511Z,47.40
2017-12-08T12:28:55.093Z,47.40
2017-12-08T12:31:23.392Z,47.70
2017-12-08T12:33:50.927Z,47.70
2017-12-08T12:36:19.273Z,47.40
2017-12-08T12:38:46.806Z,47.30
2017-12-08T12:41:14.327Z,47.10
2017-12-08T12:43:41.909Z,46.80
2017-12-08T12:46:09.510Z,46.80
2017-12-08T12:48:37.027Z,46.70
2017-12-08T12:51:04.600Z,46.80
2017-12-08T12:53:32.161Z,46.50
2017-12-08T12:55:59.708Z,47.50
2017-12-08T12:58:27.273Z,49.30
2017-12-08T13:00:55.275Z,50.90
2017-12-08T13:03:22.853Z,52.60
2017-12-08T13:05:51.180Z,53.60
2017-12-08T13:08:18.692Z,53.60
2017-12-08T13:10:47.035Z,56.10
2017-12-08T13:13:14.636Z,56.00
2017-12-08T13:15:42.208Z,56.70
2017-12-08T13:18:09.804Z,58.50
2017-12-08T13:20:37.685Z,59.60
2017-12-08T13:23:05.205Z,59.60
2017-12-08T13:25:33.004Z,60.30
2017-12-08T13:28:00.581Z,60.00
2017-12-08T13:30:28.118Z,60.10
2017-12-08T13:32:55.644Z,60.60
2017-12-08T13:35:23.200Z,61.00
2017-12-08T13:37:51.483Z,61.30
2017-12-08T13:40:19.045Z,61.20
2017-12-08T13:42:47.322Z,60.70
2017-12-08T13:45:14.849Z,60.70
2017-12-08T13:47:43.186Z,60.60
2017-12-08T13:50:10.758Z,60.60
2017-12-08T13:52:38.280Z,60.50
2017-12-08T13:55:17.556Z,61.10
2017-12-08T13:57:45.104Z,60.50
2017-12-08T14:00:12.729Z,59.70
2017-12-08T14:02:40.372Z,60.00
2017-12-08T14:05:07.961Z,59.40
2017-12-08T14:07:35.537Z,59.30
2017-12-08T14:10:03.091Z,58.90
2017-12-08T14:12:30.668Z,58.30
2017-12-08T14:14:58.233Z,59.40
2017-12-08T14:17:26.014Z,59.10
2017-12-08T14:19:53.568Z,58.20
2017-12-08T14:22:21.357Z,58.90
2017-12-08T14:24:48.892Z,57.90
2017-12-08T14:27:16.444Z,58.10
2017-12-08T14:29:44.000Z,57.90
2017-12-08T14:32:11.586Z,57.60
2017-12-08T14:34:39.121Z,56.90
2017-12-08T14:37:06.725Z,57.40
2017-12-08T14:39:34.240Z,56.20
2017-12-08T14:42:01.783Z,56.30
2017-12-08T14:44:29.353Z,56.70
2017-12-08T14:46:56.892Z,56.00
2017-12-08T14:49:24.504Z,56.20
2017-12-08T14:51:52.166Z,57.20
2017-12-08T14:54:20.172Z,57.10
2017-12-08T14:56:47.698Z,56.80
2017-12-08T14:59:15.727Z,56.20
2017-12-08T15:01:43.278Z,56.20
2017-12-08T15:04:11.111Z,56.00
2017-12-08T15:06:38.769Z,56.40
2017-12-08T15:09:06.349Z,56.10
2017-12-08T15:11:33.891Z,56.80
2017-12-08T15:14:01.450Z,56.00
2017-12-08T15:16:29.787Z,55.90
2017-12-08T15:18:57.367Z,55.80
2017-12-08T15:21:24.912Z,55.60
2017-12-08T15:23:52.429Z,54.90
2017-12-08T15:26:20.103Z,54.60
2017-12-08T15:28:47.660Z,54.70
2017-12-08T15:31:15.190Z,54.30
2017-12-08T15:33:43.586Z,55.00
2017-12-08T15:36:11.107Z,54.90
2017-12-08T15:38:38.688Z,55.00
2017-12-08T15:41:06.214Z,54.80
2017-12-08T15:43:33.974Z,53.80
2017-12-08T15:46:01.564Z,53.90
2017-12-08T15:48:29.113Z,54.30
2017-12-08T15:50:57.616Z,53.90
2017-12-08T15:53:25.922Z,53.70
2017-12-08T15:55:53.502Z,53.50
2017-12-08T15:58:21.486Z,54.20
2017-12-08T16:00:49.297Z,54.20
2017-12-08T16:03:17.581Z,53.80
2017-12-08T16:05:45.151Z,53.80
2017-12-08T16:08:13.854Z,53.60
2017-12-08T16:10:41.402Z,53.40
2017-12-08T16:13:08.911Z,53.30
2017-12-08T16:15:36.477Z,53.30
2017-12-08T16:18:04.044Z,52.70
2017-12-08T16:20:31.611Z,52.80
2017-12-08T16:22:59.244Z,52.90
2017-12-08T16:25:26.797Z,52.90
2017-12-08T16:27:54.306Z,53.10
2017-12-08T16:30:21.889Z,52.60
2017-12-08T16:32:49.500Z,52.90
2017-12-08T16:35:17.047Z,53.00
2017-12-08T16:37:44.590Z,52.70
2017-12-08T16:40:12.131Z,52.30
2017-12-08T16:42:39.683Z,52.00
2017-12-08T16:45:07.277Z,51.80
2017-12-08T16:47:34.807Z,51.80
2017-12-08T16:50:02.399Z,52.40
2017-12-08T16:52:29.996Z,53.30
2017-12-08T16:54:57.621Z,53.20
2017-12-08T16:57:25.198Z,53.30
2017-12-08T16:59:52.868Z,53.00
2017-12-08T17:02:20.410Z,53.20
2017-12-08T17:04:48.045Z,52.90
2017-12-08T17:07:15.639Z,53.90
2017-12-08T17:09:43.192Z,53.70
2017-12-08T17:12:10.735Z,54.10
2017-12-08T17:14:38.553Z,53.50
2017-12-08T17:17:06.877Z,54.10
2017-12-08T17:19:34.429Z,54.10
2017-12-08T17:22:02.033Z,54.10
2017-12-08T17:24:29.550Z,54.70
2017-12-08T17:26:57.117Z,54.60
2017-12-08T17:29:24.670Z,54.40
2017-12-08T17:31:52.625Z,54.50
2017-12-08T17:34:20.205Z,54.30
2017-12-08T17:36:48.653Z,54.10
2017-12-08T17:39:16.225Z,53.90
2017-12-08T17:41:43.751Z,53.70
2017-12-08T17:44:11.259Z,53.70
2017-12-08T17:46:38.816Z,53.90
2017-12-08T17:49:06.348Z,53.50
2017-12-08T17:51:33.915Z,52.90
2017-12-08T17:54:01.428Z,52.80
2017-12-08T17:56:29.016Z,52.60
2017-12-08T17:58:57.305Z,52.90
2017-12-08T18:01:24.844Z,52.80
2017-12-08T18:03:53.153Z,53.10
2017-12-08T18:06:20.719Z,53.10
2017-12-08T18:08:48.240Z,53.50
2017-12-08T18:11:15.790Z,52.90
2017-12-08T18:13:43.350Z,53.10
2017-12-08T18:16:11.633Z,53.60
2017-12-08T18:18:39.169Z,53.10
2017-12-08T18:21:06.945Z,53.40
2017-12-08T18:23:34.474Z,53.30
2017-12-08T18:26:02.005Z,53.00
2017-12-08T18:28:29.577Z,52.80
2017-12-08T18:30:57.088Z,52.70
2017-12-08T18:33:24.689Z,52.70
2017-12-08T18:35:52.252Z,52.40
2017-12-08T18:38:19.764Z,52.90
2017-12-08T18:40:48.121Z,53.00
2017-12-08T18:43:15.673Z,53.00
2017-12-08T18:45:43.179Z,53.40
2017-12-08T18:48:10.723Z,54.10
2017-12-08T18:50:38.228Z,54.30
2017-12-08T18:53:05.824Z,55.00
2017-12-08T18:55:33.359Z,55.40
2017-12-08T18:58:00.915Z,55.20
2017-12-08T19:00:28.504Z,55.60
2017-12-08T19:02:56.033Z,55.50
2017-12-08T19:05:23.569Z,55.80
2017-12-08T19:07:51.125Z,56.50
2017-12-08T19:10:18.716Z,57.50
2017-12-08T19:12:46.291Z,58.70
2017-12-08T19:15:13.984Z,58.80
2017-12-08T19:17:41.570Z,58.90
2017-12-08T19:20:09.094Z,59.30
2017-12-08T19:22:36.725Z,58.90
2017-12-08T19:25:04.247Z,58.40
2017-12-08T19:27:31.839Z,57.90
2017-12-08T19:29:59.457Z,57.90
2017-12-08T19:32:27.837Z,58.10
2017-12-08T19:34:56.121Z,58.10
2017-12-08T19:37:23.687Z,58.00
2017-12-08T19:39:51.238Z,58.20
2017-12-08T19:42:18.752Z,57.90
2017-12-08T19:44:46.316Z,57.70
2017-12-08T19:47:13.925Z,58.30
2017-12-08T19:49:41.490Z,58.20
2017-12-08T19:52:09.015Z,58.40
2017-12-08T19:54:37.389Z,57.80
2017-12-08T19:57:04.958Z,57.80
2017-12-08T19:59:32.522Z,57.90
2017-12-08T20:02:00.061Z,57.90
2017-12-08T20:04:27.670Z,58.00
2017-12-08T20:06:55.230Z,58.20
2017-12-08T20:09:22.794Z,57.90
2017-12-08T20:11:50.407Z,57.80
2017-12-08T20:14:17.939Z,57.70
2017-12-08T20:16:45.465Z,57.80
2017-12-08T20:19:13.025Z,57.30
2017-12-08T20:21:40.580Z,58.10
2017-12-08T20:24:08.094Z,57.60
2017-12-08T20:26:35.681Z,56.80
2017-12-08T20:29:03.295Z,57.00
2017-12-08T20:31:30.895Z,56.90
2017-12-08T20:33:58.448Z,57.00
2017-12-08T20:36:26.009Z,57.30
2017-12-08T20:38:53.564Z,57.20
2017-12-08T20:41:21.123Z,57.80
2017-12-08T20:43:48.682Z,57.50
2017-12-08T20:46:16.208Z,57.40
2017-12-08T20:48:43.740Z,57.40
2017-12-08T20:51:11.290Z,57.30
2017-12-08T20:53:38.853Z,57.50
2017-12-08T20:56:06.377Z,57.80
2017-12-08T20:58:33.940Z,57.60
2017-12-08T21:01:01.831Z,57.00
2017-12-08T21:03:30.186Z,57.50
2017-12-08T21:05:57.704Z,57.50
2017-12-08T21:08:25.293Z,57.20
2017-12-08T21:10:52.843Z,57.20
2017-12-08T21:13:20.423Z,57.70
2017-12-08T21:15:47.983Z,57.90
2017-12-08T21:18:15.534Z,57.30
2017-12-08T21:20:43.055Z,58.20
2017-12-08T21:23:10.617Z,58.20
2017-12-08T21:25:38.200Z,57.70
2017-12-08T21:28:05.753Z,57.50
2017-12-08T21:30:33.284Z,57.20
2017-12-08T21:33:00.863Z,57.00
2017-12-08T21:35:28.446Z,57.00
2017-12-08T21:37:55.988Z,56.90
2017-12-08T21:40:23.625Z,57.20
2017-12-08T21:42:51.141Z,57.10
2017-12-08T21:45:19.460Z,56.90
2017-12-08T21:47:47.022Z,56.90
2017-12-08T21:50:14.554Z,57.00
2017-12-08T21:52:42.130Z,57.50
2017-12-08T21:55:09.640Z,57.80
2017-12-08T21:57:37.167Z,58.00
2017-12-08T22:00:04.808Z,57.80
2017-12-08T22:02:32.789Z,57.40
2017-12-08T22:05:00.333Z,57.80
2017-12-08T22:07:28.648Z,59.00
2017-12-08T22:09:56.203Z,58.90
2017-12-08T22:12:23.732Z,58.90
2017-12-08T22:14:51.280Z,58.70
2017-12-08T22:17:18.801Z,58.10
2017-12-08T22:19:46.368Z,58.20
2017-12-08T22:22:14.361Z,58.20
2017-12-08T22:24:42.703Z,58.50
2017-12-08T22:27:10.267Z,58.50
2017-12-08T22:29:37.832Z,58.90
2017-12-08T22:32:05.388Z,59.00
2017-12-08T22:34:33.010Z,58.90
2017-12-08T22:37:00.519Z,58.80
2017-12-08T22:39:28.110Z,58.20
2017-12-08T22:41:56.454Z,58.60
2017-12-08T22:44:23.998Z,58.60
2017-12-08T22:46:51.609Z,58.50
2017-12-08T22:49:19.149Z,58.40
2017-12-08T22:51:46.729Z,58.70
2017-12-08T22:54:15.059Z,58.90
2017-12-08T22:56:42.619Z,58.80
2017-12-08T22:59:10.176Z,58.90
2017-12-08T23:01:37.688Z,59.30
2017-12-08T23:04:06.013Z,59.70
2017-12-08T23:06:33.860Z,59.70
2017-12-08T23:09:01.457Z,59.60
2017-12-08T23:11:28.988Z,58.60
2017-12-08T23:13:56.596Z,59.00
2017-12-08T23:16:24.191Z,58.50
2017-12-08T23:18:52.371Z,58.40
2017-12-08T23:21:19.913Z,58.70
2017-12-08T23:23:47.462Z,58.10
2017-12-08T23:26:15.003Z,58.30
2017-12-08T23:28:42.582Z,57.80
2017-12-08T23:31:10.120Z,58.60
2017-12-08T23:33:38.006Z,58.00
2017-12-08T23:36:06.574Z,57.60
2017-12-08T23:38:34.078Z,57.60
2017-12-08T23:41:01.672Z,57.90
2017-12-08T23:43:29.197Z,58.30
2017-12-08T23:45:56.753Z,58.80
2017-12-08T23:48:24.324Z,59.00
2017-12-08T23:50:51.868Z,59.40
2017-12-08T23:53:19.453Z,58.70
2017-12-08T23:55:46.962Z,58.60
2017-12-08T23:58:15.280Z,57.60
